createdAt,value
2019-03-25T00:02:02.378Z,35.20
2019-03-25T00:04:33.170Z,35.27
2019-03-25T00:07:04.292Z,37.43
2019-03-25T00:09:35.058Z,36.37
2019-03-25T00:12:05.809Z,34.40
2019-03-25T00:14:36.673Z,35.73
2019-03-25T00:17:07.455Z,33.63
2019-03-25T00:19:38.247Z,33.10
2019-03-25T00:22:09.121Z,34.80
2019-03-25T00:24:39.893Z,33.47
2019-03-25T00:27:10.645Z,33.07
2019-03-25T00:29:41.437Z,32.80
2019-03-25T00:32:12.242Z,31.83
2019-03-25T00:34:43.009Z,33.67
2019-03-25T00:37:13.763Z,30.80
2019-03-25T00:39:44.532Z,30.90
2019-03-25T00:42:15.289Z,31.57
2019-03-25T00:44:46.092Z,30.17
2019-03-25T00:47:16.879Z,31.33
2019-03-25T00:49:47.642Z,31.50
2019-03-25T00:52:18.397Z,33.30
2019-03-25T00:54:50.270Z,34.30
2019-03-25T00:57:21.237Z,32.53
2019-03-25T00:59:51.995Z,29.70
2019-03-25T01:02:22.778Z,33.93
2019-03-25T01:04:53.547Z,32.50
2019-03-25T01:07:24.503Z,31.90
2019-03-25T01:09:55.290Z,31.23
2019-03-25T01:12:26.083Z,33.10
2019-03-25T01:14:56.851Z,30.70
2019-03-25T01:17:27.603Z,29.77
2019-03-25T01:19:58.370Z,30.10
2019-03-25T01:22:29.125Z,31.93
2019-03-25T01:25:02.107Z,32.80
2019-03-25T01:27:32.546Z,31.20
2019-03-25T01:30:05.711Z,30.40
2019-03-25T01:32:36.512Z,30.33
2019-03-25T01:35:07.275Z,33.20
2019-03-25T01:37:38.122Z,31.87
2019-03-25T01:40:08.881Z,31.90
2019-03-25T01:42:39.663Z,31.83
2019-03-25T01:45:10.536Z,32.87
2019-03-25T01:47:41.283Z,32.17
2019-03-25T01:50:12.154Z,33.70
2019-03-25T01:52:42.938Z,33.10
2019-03-25T01:55:13.923Z,33.43
2019-03-25T01:57:44.754Z,31.37
2019-03-25T02:00:15.648Z,33.20
2019-03-25T02:02:46.397Z,31.07
2019-03-25T02:05:17.162Z,32.43
2019-03-25T02:07:48.118Z,32.10
2019-03-25T02:10:18.892Z,31.40
2019-03-25T02:12:49.656Z,30.13
2019-03-25T02:15:20.414Z,31.53
2019-03-25T02:17:51.234Z,33.13
2019-03-25T02:20:26.576Z,32.77
2019-03-25T02:22:54.936Z,32.93
2019-03-25T02:25:26.076Z,33.27
2019-03-25T02:27:56.894Z,32.58
2019-03-25T02:30:27.711Z,33.07
2019-03-25T02:32:58.487Z,33.97
2019-03-25T02:35:29.268Z,33.97
2019-03-25T02:38:00.032Z,32.70
2019-03-25T02:40:30.784Z,33.70
2019-03-25T02:43:01.563Z,32.90
2019-03-25T02:45:32.328Z,34.17
2019-03-25T02:48:03.088Z,32.00
2019-03-25T02:50:33.842Z,34.87
2019-03-25T02:53:04.603Z,35.77
2019-03-25T02:55:42.053Z,33.73
2019-03-25T02:58:08.041Z,34.97
2019-03-25T03:00:39.229Z,33.97
2019-03-25T03:03:10.004Z,33.20
2019-03-25T03:05:40.789Z,30.50
2019-03-25T03:08:11.550Z,32.10
2019-03-25T03:10:42.305Z,31.70
2019-03-25T03:13:13.068Z,33.70
2019-03-25T03:15:43.850Z,29.03
2019-03-25T03:18:14.641Z,30.80
2019-03-25T03:20:45.427Z,30.23
2019-03-25T03:23:16.190Z,31.90
2019-03-25T03:25:56.977Z,29.20
2019-03-25T03:28:19.625Z,30.83
2019-03-25T03:30:50.408Z,29.33
2019-03-25T03:33:21.207Z,29.53
2019-03-25T03:35:51.960Z,26.73
2019-03-25T03:38:22.694Z,27.57
2019-03-25T03:40:53.555Z,25.80
2019-03-25T03:43:24.379Z,25.47
2019-03-25T03:45:55.080Z,26.53
2019-03-25T03:48:25.848Z,23.17
2019-03-25T03:50:56.797Z,23.17
2019-03-25T03:53:27.581Z,24.23
2019-03-25T03:56:11.990Z,24.50
2019-03-25T03:58:32.351Z,25.20
2019-03-25T04:01:03.128Z,24.93
2019-03-25T04:03:33.873Z,24.30
2019-03-25T04:06:04.633Z,24.47
2019-03-25T04:08:35.431Z,23.30
2019-03-25T04:11:06.206Z,24.17
2019-03-25T04:13:37.005Z,23.10
2019-03-25T04:16:07.832Z,23.83
2019-03-25T04:18:38.602Z,24.77
2019-03-25T04:21:09.351Z,24.60
2019-03-25T04:23:40.215Z,23.90
2019-03-25T04:26:10.980Z,23.40
2019-03-25T04:28:41.786Z,24.37
2019-03-25T04:31:12.559Z,23.90
2019-03-25T04:33:43.326Z,23.87
2019-03-25T04:36:14.086Z,24.40
2019-03-25T04:38:44.850Z,24.13
2019-03-25T04:41:15.631Z,23.87
2019-03-25T04:43:46.426Z,23.03
2019-03-25T04:46:17.210Z,24.57
2019-03-25T04:48:47.953Z,25.40
2019-03-25T04:51:18.738Z,21.57
2019-03-25T04:53:49.526Z,23.50
2019-03-25T04:56:20.278Z,23.17
2019-03-25T04:58:51.055Z,23.70
2019-03-25T05:01:21.809Z,23.73
2019-03-25T05:03:52.593Z,24.37
2019-03-25T05:06:23.350Z,22.60
2019-03-25T05:08:54.105Z,24.00
2019-03-25T05:11:30.464Z,22.37
2019-03-25T05:13:57.579Z,23.05
2019-03-25T05:16:28.329Z,23.20
2019-03-25T05:18:59.154Z,23.40
2019-03-25T05:21:29.914Z,23.60
2019-03-25T05:24:00.701Z,22.50
2019-03-25T05:26:31.454Z,23.47
2019-03-25T05:29:02.256Z,23.87
2019-03-25T05:31:33.033Z,21.20
2019-03-25T05:34:03.790Z,23.63
2019-03-25T05:36:34.581Z,21.97
2019-03-25T05:39:07.284Z,21.40
2019-03-25T05:41:38.083Z,22.82
2019-03-25T05:44:08.851Z,23.00
2019-03-25T05:46:39.625Z,21.33
2019-03-25T05:49:10.365Z,22.20
2019-03-25T05:51:41.163Z,20.97
2019-03-25T05:54:11.918Z,20.50
2019-03-25T05:56:42.708Z,21.87
2019-03-25T05:59:13.499Z,20.77
2019-03-25T06:01:44.457Z,19.10
2019-03-25T06:04:15.333Z,17.65
2019-03-25T06:06:46.177Z,15.87
2019-03-25T06:09:16.931Z,16.23
2019-03-25T06:11:47.724Z,16.43
2019-03-25T06:14:18.476Z,15.70
2019-03-25T06:16:49.238Z,15.73
2019-03-25T06:19:19.992Z,15.63
2019-03-25T06:21:50.782Z,14.07
2019-03-25T06:24:21.533Z,14.47
2019-03-25T06:26:52.299Z,13.17
2019-03-25T06:29:23.066Z,12.67
2019-03-25T06:31:53.842Z,12.70
2019-03-25T06:34:24.594Z,13.73
2019-03-25T06:36:55.381Z,14.10
2019-03-25T06:39:26.163Z,12.53
2019-03-25T06:41:56.924Z,13.13
2019-03-25T06:44:27.676Z,10.77
2019-03-25T06:46:58.469Z,13.70
2019-03-25T06:49:29.222Z,12.77
2019-03-25T06:51:59.989Z,12.00
2019-03-25T06:54:30.747Z,11.90
2019-03-25T06:57:01.509Z,9.80
2019-03-25T06:59:32.263Z,11.50
2019-03-25T07:02:03.238Z,11.03
2019-03-25T07:04:33.999Z,10.73
2019-03-25T07:07:04.768Z,10.53
2019-03-25T07:09:35.561Z,10.27
2019-03-25T07:12:06.325Z,9.57
2019-03-25T07:14:37.124Z,9.97
2019-03-25T07:17:07.952Z,9.30
2019-03-25T07:19:38.706Z,9.33
2019-03-25T07:22:09.470Z,9.30
2019-03-25T07:24:40.216Z,8.90
2019-03-25T07:27:11.011Z,8.53
2019-03-25T07:29:41.764Z,8.63
2019-03-25T07:32:12.535Z,7.57
2019-03-25T07:34:43.337Z,8.20
2019-03-25T07:37:14.130Z,6.10
2019-03-25T07:39:44.953Z,7.10
2019-03-25T07:42:15.726Z,7.67
2019-03-25T07:44:46.475Z,6.30
2019-03-25T07:47:17.309Z,6.33
2019-03-25T07:49:48.097Z,6.23
2019-03-25T07:52:18.950Z,6.50
2019-03-25T07:54:49.776Z,6.40
2019-03-25T07:57:20.622Z,5.87
2019-03-25T07:59:51.413Z,6.07
2019-03-25T08:02:22.210Z,5.40
2019-03-25T08:04:52.997Z,5.67
2019-03-25T08:07:23.786Z,6.07
2019-03-25T08:09:54.554Z,5.40
2019-03-25T08:12:25.309Z,5.60
2019-03-25T08:14:56.165Z,5.53
2019-03-25T08:17:27.036Z,5.30
2019-03-25T08:19:57.833Z,5.87
2019-03-25T08:22:28.678Z,4.60
2019-03-25T08:24:59.444Z,5.23
2019-03-25T08:27:30.216Z,4.80
2019-03-25T08:30:00.979Z,4.90
2019-03-25T08:32:31.748Z,5.20
2019-03-25T08:35:04.652Z,5.23
2019-03-25T08:37:35.451Z,4.83
2019-03-25T08:40:06.303Z,5.10
2019-03-25T08:42:37.081Z,4.60
2019-03-25T08:45:08.134Z,5.00
2019-03-25T08:47:38.912Z,4.85
2019-03-25T08:50:09.969Z,5.03
2019-03-25T08:52:40.693Z,5.10
2019-03-25T08:55:11.451Z,6.00
2019-03-25T08:57:42.243Z,5.40
2019-03-25T09:00:13.254Z,5.20
2019-03-25T09:02:44.054Z,5.25
2019-03-25T09:05:14.933Z,6.27
2019-03-25T09:07:45.724Z,5.57
2019-03-25T09:10:16.608Z,8.33
2019-03-25T09:12:47.402Z,5.77
2019-03-25T09:15:18.384Z,6.53
2019-03-25T09:17:49.190Z,5.50
2019-03-25T09:20:19.959Z,6.13
2019-03-25T09:22:50.748Z,6.03
2019-03-25T09:25:21.529Z,6.27
2019-03-25T09:27:52.296Z,6.23
2019-03-25T09:30:52.825Z,6.83
2019-03-25T09:33:23.642Z,5.87
2019-03-25T09:35:54.438Z,7.33
2019-03-25T09:38:25.159Z,6.40
2019-03-25T09:40:55.954Z,6.40
2019-03-25T09:43:26.750Z,7.67
2019-03-25T09:45:57.507Z,6.33
2019-03-25T09:48:29.377Z,6.67
2019-03-25T09:51:00.143Z,6.83
2019-03-25T09:53:30.973Z,6.77
2019-03-25T09:56:01.730Z,6.03
2019-03-25T09:58:36.525Z,6.00
2019-03-25T10:01:06.046Z,5.95
2019-03-25T10:03:36.869Z,5.97
2019-03-25T10:06:07.776Z,6.70
2019-03-25T10:08:38.556Z,6.57
2019-03-25T10:11:09.325Z,7.03
2019-03-25T10:13:40.105Z,7.53
2019-03-25T10:16:10.854Z,6.90
2019-03-25T10:18:41.672Z,6.53
2019-03-25T10:21:12.523Z,7.53
2019-03-25T10:23:43.359Z,7.27
2019-03-25T10:26:14.189Z,7.80
2019-03-25T10:28:48.876Z,7.83
2019-03-25T10:31:17.782Z,8.10
2019-03-25T10:33:48.648Z,7.70
2019-03-25T10:36:19.397Z,7.60
2019-03-25T10:38:50.225Z,7.70
2019-03-25T10:41:21.009Z,8.90
2019-03-25T10:43:51.775Z,6.80
2019-03-25T10:46:22.536Z,6.53
2019-03-25T10:48:53.297Z,6.57
2019-03-25T10:51:24.066Z,7.20
2019-03-25T10:53:54.831Z,7.30
2019-03-25T10:56:25.583Z,7.40
2019-03-25T10:58:58.347Z,7.47
2019-03-25T11:01:29.002Z,7.40
2019-03-25T11:03:59.775Z,6.60
2019-03-25T11:06:30.526Z,6.33
2019-03-25T11:09:01.395Z,6.83
2019-03-25T11:11:32.149Z,7.57
2019-03-25T11:14:02.915Z,7.60
2019-03-25T11:16:33.808Z,7.53
2019-03-25T11:19:04.609Z,7.63
2019-03-25T11:21:35.366Z,6.50
2019-03-25T11:24:06.130Z,7.07
2019-03-25T11:26:36.907Z,6.17
2019-03-25T11:29:08.673Z,6.10
2019-03-25T11:31:39.699Z,5.63
2019-03-25T11:34:10.471Z,6.17
2019-03-25T11:36:41.333Z,5.00
2019-03-25T11:39:12.105Z,4.97
2019-03-25T11:41:42.942Z,4.93
2019-03-25T11:44:13.798Z,4.40
2019-03-25T11:46:44.624Z,5.57
2019-03-25T11:49:15.458Z,4.63
2019-03-25T11:51:46.211Z,4.60
2019-03-25T11:54:16.987Z,5.60
2019-03-25T11:56:47.765Z,4.87
2019-03-25T11:59:19.102Z,5.60
2019-03-25T12:01:49.894Z,6.70
2019-03-25T12:04:20.904Z,5.80
2019-03-25T12:06:51.667Z,5.67
2019-03-25T12:09:22.466Z,7.77
2019-03-25T12:11:53.256Z,6.13
2019-03-25T12:14:24.035Z,6.87
2019-03-25T12:16:54.904Z,5.27
2019-03-25T12:19:25.714Z,5.67
2019-03-25T12:21:56.557Z,4.00
2019-03-25T12:24:27.386Z,4.90
2019-03-25T12:26:58.197Z,6.00
2019-03-25T12:29:30.523Z,5.70
2019-03-25T12:32:01.493Z,5.80
2019-03-25T12:34:32.409Z,6.13
2019-03-25T12:37:03.147Z,5.77
2019-03-25T12:39:33.963Z,6.80
2019-03-25T12:42:04.730Z,5.57
2019-03-25T12:44:35.510Z,5.37
2019-03-25T12:47:06.275Z,5.40
2019-03-25T12:49:37.050Z,5.57
2019-03-25T12:52:07.834Z,4.80
2019-03-25T12:54:38.656Z,5.60
2019-03-25T12:57:09.412Z,5.70
2019-03-25T12:59:41.427Z,5.43
2019-03-25T13:02:12.536Z,5.20
2019-03-25T13:04:43.323Z,5.80
2019-03-25T13:07:14.149Z,4.97
2019-03-25T13:09:44.920Z,5.67
2019-03-25T13:12:15.716Z,6.40
2019-03-25T13:14:46.569Z,6.73
2019-03-25T13:17:17.326Z,5.57
2019-03-25T13:19:48.118Z,5.90
2019-03-25T13:22:19.007Z,6.17
2019-03-25T13:24:49.840Z,5.80
2019-03-25T13:27:20.713Z,7.37
2019-03-25T13:29:52.910Z,5.30
2019-03-25T13:32:23.890Z,4.78
2019-03-25T13:34:54.807Z,4.73
2019-03-25T13:37:25.616Z,4.43
2019-03-25T13:39:56.509Z,4.63
2019-03-25T13:42:27.362Z,5.37
2019-03-25T13:44:58.139Z,5.00
2019-03-25T13:47:28.892Z,4.63
2019-03-25T13:49:59.737Z,4.87
2019-03-25T13:52:30.490Z,4.83
2019-03-25T13:55:01.258Z,4.57
2019-03-25T13:57:32.033Z,5.23
2019-03-25T14:00:05.007Z,5.10
2019-03-25T14:02:35.859Z,3.40
2019-03-25T14:05:06.753Z,3.17
2019-03-25T14:07:37.526Z,2.80
2019-03-25T14:10:10.635Z,2.80
2019-03-25T14:12:41.369Z,2.62
2019-03-25T14:15:12.132Z,3.03
2019-03-25T14:17:42.886Z,3.20
2019-03-25T14:20:13.781Z,2.53
2019-03-25T14:22:44.625Z,2.63
2019-03-25T14:25:15.438Z,2.50
2019-03-25T14:27:46.213Z,2.17
2019-03-25T14:30:17.188Z,2.50
2019-03-25T14:32:48.077Z,2.77
2019-03-25T14:35:18.876Z,2.30
2019-03-25T14:37:49.689Z,2.57
2019-03-25T14:40:20.453Z,2.33
2019-03-25T14:42:51.220Z,2.50
2019-03-25T14:45:26.300Z,2.33
2019-03-25T14:47:54.735Z,2.60
2019-03-25T14:50:25.608Z,2.67
2019-03-25T14:52:56.366Z,2.53
2019-03-25T14:55:27.174Z,2.63
2019-03-25T14:57:57.950Z,2.17
2019-03-25T15:00:28.710Z,2.50
2019-03-25T15:02:59.504Z,2.63
2019-03-25T15:05:30.288Z,3.10
2019-03-25T15:08:01.192Z,2.77
2019-03-25T15:10:31.946Z,3.07
2019-03-25T15:13:02.755Z,2.93
2019-03-25T15:15:33.518Z,2.87
2019-03-25T15:18:14.974Z,3.10
2019-03-25T15:20:36.974Z,2.80
2019-03-25T15:23:07.743Z,2.40
2019-03-25T15:25:38.487Z,2.40
2019-03-25T15:28:09.456Z,2.50
2019-03-25T15:30:40.210Z,2.57
2019-03-25T15:33:10.996Z,2.30
2019-03-25T15:35:41.754Z,2.00
2019-03-25T15:38:12.518Z,2.47
2019-03-25T15:40:43.276Z,2.40
2019-03-25T15:43:14.040Z,2.20
2019-03-25T15:45:44.828Z,2.60
2019-03-25T15:48:15.700Z,1.83
2019-03-25T15:50:46.454Z,1.50
2019-03-25T15:53:17.222Z,1.17
2019-03-25T15:55:48.006Z,1.30
2019-03-25T15:58:25.907Z,1.40
2019-03-25T16:00:51.457Z,1.60
2019-03-25T16:03:22.217Z,1.70
2019-03-25T16:05:52.980Z,1.67
2019-03-25T16:08:23.773Z,1.20
2019-03-25T16:10:54.533Z,1.30
2019-03-25T16:13:25.441Z,1.40
2019-03-25T16:15:56.280Z,1.50
2019-03-25T16:18:37.924Z,1.57
2019-03-25T16:21:08.792Z,1.15
2019-03-25T16:23:39.545Z,1.50
2019-03-25T16:26:10.317Z,1.27
2019-03-25T16:28:41.075Z,1.30
2019-03-25T16:31:11.830Z,1.20
2019-03-25T16:33:42.624Z,1.30
2019-03-25T16:36:13.407Z,1.10
2019-03-25T16:38:44.168Z,1.60
2019-03-25T16:41:14.927Z,0.97
2019-03-25T16:43:45.736Z,1.20
2019-03-25T16:46:16.503Z,1.47
2019-03-25T16:48:47.264Z,1.30
2019-03-25T16:51:18.022Z,1.43
2019-03-25T16:53:48.792Z,1.50
2019-03-25T16:56:19.570Z,1.40
2019-03-25T16:58:50.338Z,1.23
2019-03-25T17:01:21.100Z,2.07
2019-03-25T17:03:51.867Z,1.73
2019-03-25T17:06:22.634Z,1.77
2019-03-25T17:08:53.426Z,2.40
2019-03-25T17:11:24.182Z,2.20
2019-03-25T17:13:54.954Z,2.20
2019-03-25T17:16:25.707Z,2.90
2019-03-25T17:18:56.475Z,2.50
2019-03-25T17:21:27.540Z,2.50
2019-03-25T17:23:58.313Z,2.50
2019-03-25T17:26:29.093Z,2.20
2019-03-25T17:28:59.857Z,2.20
2019-03-25T17:31:30.613Z,2.50
2019-03-25T17:34:01.395Z,2.20
2019-03-25T17:36:32.145Z,2.37
2019-03-25T17:39:06.315Z,2.40
2019-03-25T17:41:37.084Z,2.05
2019-03-25T17:44:07.865Z,2.60
2019-03-25T17:46:38.618Z,2.37
2019-03-25T17:49:09.390Z,2.60
2019-03-25T17:51:40.150Z,2.63
2019-03-25T17:54:10.953Z,2.40
2019-03-25T17:56:41.757Z,2.23
2019-03-25T17:59:12.631Z,2.10
2019-03-25T18:01:43.454Z,1.80
2019-03-25T18:04:14.334Z,1.80
2019-03-25T18:06:45.145Z,2.03
2019-03-25T18:09:15.977Z,2.07
2019-03-25T18:11:46.779Z,1.63
2019-03-25T18:14:17.605Z,1.83
2019-03-25T18:16:48.436Z,1.50
2019-03-25T18:19:19.248Z,1.77
2019-03-25T18:21:50.061Z,1.70
2019-03-25T18:24:20.917Z,1.70
2019-03-25T18:26:51.733Z,1.77
2019-03-25T18:29:22.535Z,2.13
2019-03-25T18:31:53.297Z,1.70
2019-03-25T18:34:24.105Z,2.00
2019-03-25T18:36:54.896Z,2.10
2019-03-25T18:39:25.689Z,2.20
2019-03-25T18:41:56.448Z,1.90
2019-03-25T18:44:27.244Z,1.90
2019-03-25T18:46:58.026Z,3.50
2019-03-25T18:49:28.821Z,3.77
2019-03-25T18:51:59.572Z,3.23
2019-03-25T18:54:30.375Z,3.10
2019-03-25T18:57:01.129Z,2.33
2019-03-25T18:59:32.191Z,2.33
2019-03-25T19:02:03.084Z,2.42
2019-03-25T19:04:33.854Z,3.17
2019-03-25T19:07:04.635Z,2.80
2019-03-25T19:09:35.437Z,3.00
2019-03-25T19:12:06.166Z,2.67
2019-03-25T19:14:37.000Z,3.07
2019-03-25T19:17:07.760Z,2.73
2019-03-25T19:19:38.690Z,3.43
2019-03-25T19:22:12.476Z,3.00
2019-03-25T19:24:42.701Z,3.40
2019-03-25T19:27:14.010Z,3.17
2019-03-25T19:29:44.877Z,3.20
2019-03-25T19:32:15.647Z,3.20
2019-03-25T19:34:46.972Z,3.80
2019-03-25T19:37:17.906Z,3.37
2019-03-25T19:39:48.750Z,4.00
2019-03-25T19:42:20.038Z,3.27
2019-03-25T19:44:51.130Z,3.33
2019-03-25T19:47:22.522Z,3.55
2019-03-25T19:49:53.780Z,4.05
2019-03-25T19:52:24.847Z,4.17
2019-03-25T19:54:55.942Z,3.22
2019-03-25T19:57:28.354Z,3.83
2019-03-25T20:00:00.095Z,3.60
2019-03-25T20:02:32.295Z,3.55
2019-03-25T20:05:05.764Z,3.92
2019-03-25T20:07:36.989Z,3.30
2019-03-25T20:10:29.835Z,3.33
2019-03-25T20:13:01.265Z,3.55
2019-03-25T20:15:45.034Z,4.20
2019-03-25T20:18:04.903Z,3.40
2019-03-25T20:20:35.646Z,3.60
2019-03-25T20:23:06.469Z,3.30
2019-03-25T20:25:37.274Z,3.60
2019-03-25T20:28:08.095Z,3.40
2019-03-25T20:30:38.961Z,3.10
2019-03-25T20:33:12.874Z,3.33
2019-03-25T20:35:43.714Z,3.33
2019-03-25T20:38:14.563Z,3.43
2019-03-25T20:40:45.490Z,3.17
2019-03-25T20:43:16.271Z,3.60
2019-03-25T20:45:47.027Z,3.97
2019-03-25T20:48:17.824Z,3.20
2019-03-25T20:50:48.797Z,3.40
2019-03-25T20:53:19.658Z,3.00
2019-03-25T20:55:50.452Z,3.70
2019-03-25T20:58:21.283Z,3.90
2019-03-25T21:00:52.985Z,3.40
2019-03-25T21:03:23.758Z,3.35
2019-03-25T21:05:54.794Z,3.70
2019-03-25T21:08:25.561Z,3.40
2019-03-25T21:10:56.450Z,3.80
2019-03-25T21:13:27.223Z,3.27
2019-03-25T21:15:57.992Z,3.30
2019-03-25T21:18:28.720Z,3.60
2019-03-25T21:20:59.676Z,3.57
2019-03-25T21:23:30.521Z,3.20
2019-03-25T21:26:01.231Z,4.03
2019-03-25T21:28:31.991Z,2.93
2019-03-25T21:31:02.813Z,3.30
2019-03-25T21:33:33.557Z,3.40
2019-03-25T21:36:04.360Z,3.10
2019-03-25T21:38:35.192Z,2.60
2019-03-25T21:41:06.069Z,2.70
2019-03-25T21:43:36.851Z,3.70
2019-03-25T21:46:07.664Z,2.80
2019-03-25T21:48:39.937Z,3.30
2019-03-25T21:51:11.071Z,3.02
2019-03-25T21:53:41.972Z,3.10
2019-03-25T21:56:12.847Z,3.10
2019-03-25T21:58:43.569Z,3.53
2019-03-25T22:01:14.361Z,3.30
2019-03-25T22:03:45.145Z,3.33
2019-03-25T22:06:15.945Z,4.00
2019-03-25T22:08:46.706Z,3.37
2019-03-25T22:11:17.474Z,3.33
2019-03-25T22:13:48.306Z,3.20
2019-03-25T22:16:19.105Z,3.63
2019-03-25T22:18:49.922Z,3.50
2019-03-25T22:21:20.682Z,3.77
2019-03-25T22:23:53.770Z,3.73
2019-03-25T22:26:24.144Z,3.75
2019-03-25T22:28:54.951Z,3.17
2019-03-25T22:31:25.713Z,3.70
2019-03-25T22:33:56.510Z,2.97
2019-03-25T22:36:27.286Z,3.40
2019-03-25T22:38:58.067Z,3.27
2019-03-25T22:41:28.898Z,3.57
2019-03-25T22:43:59.649Z,3.10
2019-03-25T22:46:30.425Z,3.93
2019-03-25T22:49:01.372Z,3.30
2019-03-25T22:51:32.159Z,3.93
2019-03-25T22:54:02.917Z,4.70
2019-03-25T22:56:33.746Z,3.53
2019-03-25T22:59:04.545Z,3.27
2019-03-25T23:01:35.319Z,3.67
2019-03-25T23:04:06.110Z,3.60
2019-03-25T23:06:36.870Z,3.97
2019-03-25T23:09:07.651Z,4.10
2019-03-25T23:11:38.421Z,4.37
2019-03-25T23:14:09.183Z,3.90
2019-03-25T23:16:39.954Z,4.13
2019-03-25T23:19:10.743Z,4.03
2019-03-25T23:21:41.535Z,4.73
2019-03-25T23:24:12.293Z,4.40
2019-03-25T23:26:43.089Z,3.83
2019-03-25T23:29:13.871Z,4.47
2019-03-25T23:31:44.629Z,4.10
2019-03-25T23:34:15.446Z,6.43
2019-03-25T23:36:46.214Z,4.07
2019-03-25T23:39:17.004Z,4.57
2019-03-25T23:41:47.802Z,4.63
2019-03-25T23:44:18.581Z,4.80
2019-03-25T23:46:49.349Z,4.00
2019-03-25T23:49:20.115Z,3.70
2019-03-25T23:51:50.878Z,3.30
2019-03-25T23:54:21.634Z,3.13
2019-03-25T23:56:52.411Z,2.67
2019-03-25T23:59:23.154Z,3.30
